sensor_id;sensor_type;location;lat;lon;timestamp;pressure;altitude;pressure_sealevel;temperature;humidity
44734;BME280;30462;52.446;-1.930;2023-11-21T00:00:18;100223.0781;;;;
44734;BME280;30462;52.446;-1.930;2023-11-21T00:01:18;100225.3203;;;;
44734;BME280;30462;52.446;-1.930;2023-11-21T00:02:17;100223.582;;;;
44734;BME280;30462;52.446;-1.930;2023-11-21T00:03:18;100222.875;;;;
44734;BME280;30462;52.446;-1.930;2023-11-21T00:04:17;100223.207;;;;
44734;BME280;30462;52.446;-1.930;2023-11-21T00:05:18;100224.5234;;;;
44734;BME280;30462;52.446;-1.930;2023-11-21T00:06:18;100225.0156;;;;
44734;BME280;30462;52.446;-1.930;2023-11-21T00:07:18;100227.9453;;;;
44734;BME280;30462;52.446;-1.930;2023-11-21T00:08:17;100227.2422;;;;
44734;BME280;30462;52.446;-1.930;2023-11-21T00:09:17;100229.2813;;;;
44734;BME280;30462;52.446;-1.930;2023-11-21T00:10:18;100230.582;;;;
44734;BME280;30462;52.446;-1.930;2023-11-21T00:11:18;100225.8359;;;;
44734;BME280;30462;52.446;-1.930;2023-11-21T00:12:18;100227.4141;;;;
44734;BME280;30462;52.446;-1.930;2023-11-21T00:13:17;100227.5781;;;;
44734;BME280;30462;52.446;-1.930;2023-11-21T00:14:18;100231.5703;;;;
44734;BME280;30462;52.446;-1.930;2023-11-21T00:15:18;100230.2656;;;;
44734;BME280;30462;52.446;-1.930;2023-11-21T00:16:17;100229.4414;;;;
44734;BME280;30462;52.446;-1.930;2023-11-21T00:17:17;100234.5742;;;;
44734;BME280;30462;52.446;-1.930;2023-11-21T00:18:18;100238.4531;;;;
44734;BME280;30462;52.446;-1.930;2023-11-21T00:19:18;100239.6172;;;;
44734;BME280;30462;52.446;-1.930;2023-11-21T00:20:18;100246.0117;;;;
44734;BME280;30462;52.446;-1.930;2023-11-21T00:21:18;100246.2773;;;;
44734;BME280;30462;52.446;-1.930;2023-11-21T00:22:18;100250.207;;;;
44734;BME280;30462;52.446;-1.930;2023-11-21T00:23:17;100250.9219;;;;
44734;BME280;30462;52.446;-1.930;2023-11-21T00:24:18;100251.4141;;;;
44734;BME280;30462;52.446;-1.930;2023-11-21T00:25:18;100257.4297;;;;
44734;BME280;30462;52.446;-1.930;2023-11-21T00:26:18;100261.2227;;;;
44734;BME280;30462;52.446;-1.930;2023-11-21T00:27:18;100266.3086;;;;
44734;BME280;30462;52.446;-1.930;2023-11-21T00:28:17;100265.5508;;;;
44734;BME280;30462;52.446;-1.930;2023-11-21T00:29:18;100264.7266;;;;
44734;BME280;30462;52.446;-1.930;2023-11-21T00:30:18;100265.9375;;;;
44734;BME280;30462;52.446;-1.930;2023-11-21T00:31:18;100268.0352;;;;
44734;BME280;30462;52.446;-1.930;2023-11-21T00:32:18;100268.1406;;;;
44734;BME280;30462;52.446;-1.930;2023-11-21T00:33:18;100267.6094;;;;
44734;BME280;30462;52.446;-1.930;2023-11-21T00:34:18;100269.1875;;;;
44734;BME280;30462;52.446;-1.930;2023-11-21T00:35:18;100268.0234;;;;
44734;BME280;30462;52.446;-1.930;2023-11-21T00:36:18;100267.3086;;;;
44734;BME280;30462;52.446;-1.930;2023-11-21T00:37:17;100266.8906;;;;
44734;BME280;30462;52.446;-1.930;2023-11-21T00:38:17;100273.3242;;;;
44734;BME280;30462;52.446;-1.930;2023-11-21T00:39:18;100272.7813;;;;
44734;BME280;30462;52.446;-1.930;2023-11-21T00:40:18;100275.418;;;;
44734;BME280;30462;52.446;-1.930;2023-11-21T00:41:18;100272.5508;;;;
44734;BME280;30462;52.446;-1.930;2023-11-21T00:42:17;100275.1875;;;;
44734;BME280;30462;52.446;-1.930;2023-11-21T00:43:18;100273.1602;;;;
44734;BME280;30462;52.446;-1.930;2023-11-21T00:44:18;100273.6016;;;;
44734;BME280;30462;52.446;-1.930;2023-11-21T00:45:18;100271.6836;;;;
44734;BME280;30462;52.446;-1.930;2023-11-21T00:46:18;100271.6836;;;;
44734;BME280;30462;52.446;-1.930;2023-11-21T00:47:17;100274.4648;;;;
44734;BME280;30462;52.446;-1.930;2023-11-21T00:48:18;100274.8125;;;;
44734;BME280;30462;52.446;-1.930;2023-11-21T00:49:19;100276.4492;;;;
44734;BME280;30462;52.446;-1.930;2023-11-21T00:50:18;100279.9883;;;;
44734;BME280;30462;52.446;-1.930;2023-11-21T00:51:17;100280.2109;;;;
44734;BME280;30462;52.446;-1.930;2023-11-21T00:52:18;100283.168;;;;
44734;BME280;30462;52.446;-1.930;2023-11-21T00:53:18;100282.8438;;;;
44734;BME280;30462;52.446;-1.930;2023-11-21T00:54:18;100284.5078;;;;
44734;BME280;30462;52.446;-1.930;2023-11-21T00:55:18;100282.957;;;;
44734;BME280;30462;52.446;-1.930;2023-11-21T00:56:18;100287.6016;;;;
44734;BME280;30462;52.446;-1.930;2023-11-21T00:57:18;100284.9258;;;;
44734;BME280;30462;52.446;-1.930;2023-11-21T00:58:18;100285.8203;;;;
44734;BME280;30462;52.446;-1.930;2023-11-21T00:59:17;100290.0781;;;;
44734;BME280;30462;52.446;-1.930;2023-11-21T01:00:18;100289.8008;;;;
44734;BME280;30462;52.446;-1.930;2023-11-21T01:01:18;100288.5977;;;;
44734;BME280;30462;52.446;-1.930;2023-11-21T01:02:17;100291.3945;;;;
44734;BME280;30462;52.446;-1.930;2023-11-21T01:03:17;100294.8008;;;;
44734;BME280;30462;52.446;-1.930;2023-11-21T01:04:18;100294.3164;;;;
44734;BME280;30462;52.446;-1.930;2023-11-21T01:05:18;100296.6523;;;;
44734;BME280;30462;52.446;-1.930;2023-11-21T01:06:17;100295.2344;;;;
44734;BME280;30462;52.446;-1.930;2023-11-21T01:07:18;100299.4492;;;;
44734;BME280;30462;52.446;-1.930;2023-11-21T01:08:18;100301.2031;;;;
44734;BME280;30462;52.446;-1.930;2023-11-21T01:09:18;100304.2539;;;;
44734;BME280;30462;52.446;-1.930;2023-11-21T01:10:18;100304.6406;;;;
44734;BME280;30462;52.446;-1.930;2023-11-21T01:11:18;100309.2383;;;;
44734;BME280;30462;52.446;-1.930;2023-11-21T01:12:17;100305.582;;;;
44734;BME280;30462;52.446;-1.930;2023-11-21T01:13:18;100307.7031;;;;
44734;BME280;30462;52.446;-1.930;2023-11-21T01:14:18;100313.0625;;;;
44734;BME280;30462;52.446;-1.930;2023-11-21T01:15:18;100312.9414;;;;
44734;BME280;30462;52.446;-1.930;2023-11-21T01:16:18;100314.4844;;;;
44734;BME280;30462;52.446;-1.930;2023-11-21T01:17:18;100320.5508;;;;
44734;BME280;30462;52.446;-1.930;2023-11-21T01:18:17;100320.8359;;;;
44734;BME280;30462;52.446;-1.930;2023-11-21T01:19:18;100321.7539;;;;
44734;BME280;30462;52.446;-1.930;2023-11-21T01:20:17;100322.4531;;;;
44734;BME280;30462;52.446;-1.930;2023-11-21T01:21:17;100325.6328;;;;
44734;BME280;30462;52.446;-1.930;2023-11-21T01:22:18;100325.9102;;;;
44734;BME280;30462;52.446;-1.930;2023-11-21T01:23:18;100325.5313;;;;
44734;BME280;30462;52.446;-1.930;2023-11-21T01:24:18;100325.3125;;;;
44734;BME280;30462;52.446;-1.930;2023-11-21T01:25:18;100327.1719;;;;
44734;BME280;30462;52.446;-1.930;2023-11-21T01:26:18;100332.332;;;;
44734;BME280;30462;52.446;-1.930;2023-11-21T01:27:18;100332.4063;;;;
44734;BME280;30462;52.446;-1.930;2023-11-21T01:28:18;100335.6328;;;;
44734;BME280;30462;52.446;-1.930;2023-11-21T01:29:17;100336.793;;;;
44734;BME280;30462;52.446;-1.930;2023-11-21T01:30:18;100344.2266;;;;
44734;BME280;30462;52.446;-1.930;2023-11-21T01:31:18;100344.0195;;;;
44734;BME280;30462;52.446;-1.930;2023-11-21T01:32:18;100345.1055;;;;
44734;BME280;30462;52.446;-1.930;2023-11-21T01:33:18;100345.0664;;;;
44734;BME280;30462;52.446;-1.930;2023-11-21T01:34:18;100344.7344;;;;
44734;BME280;30462;52.446;-1.930;2023-11-21T01:35:18;100346.4609;;;;
44734;BME280;30462;52.446;-1.930;2023-11-21T01:36:17;100348.5586;;;;
44734;BME280;30462;52.446;-1.930;2023-11-21T01:37:18;100351.5;;;;
44734;BME280;30462;52.446;-1.930;2023-11-21T01:38:18;100352.1797;;;;
44734;BME280;30462;52.446;-1.930;2023-11-21T01:39:18;100357.7617;;;;
44734;BME280;30462;52.446;-1.930;2023-11-21T01:40:18;100362.1914;;;;
44734;BME280;30462;52.446;-1.930;2023-11-21T01:41:18;100366.1133;;;;
44734;BME280;30462;52.446;-1.930;2023-11-21T01:42:18;100367.6992;;;;
44734;BME280;30462;52.446;-1.930;2023-11-21T01:43:18;100378.293;;;;
44734;BME280;30462;52.446;-1.930;2023-11-21T01:44:17;100375.0313;;;;
44734;BME280;30462;52.446;-1.930;2023-11-21T01:45:18;100377.7461;;;;
44734;BME280;30462;52.446;-1.930;2023-11-21T01:46:18;100379;;;;
44734;BME280;30462;52.446;-1.930;2023-11-21T01:47:17;100369.8711;;;;
44734;BME280;30462;52.446;-1.930;2023-11-21T01:48:18;100378.8008;;;;
44734;BME280;30462;52.446;-1.930;2023-11-21T01:49:18;100381.0898;;;;
44734;BME280;30462;52.446;-1.930;2023-11-21T01:50:18;100381.4141;;;;
44734;BME280;30462;52.446;-1.930;2023-11-21T01:51:18;100382.4961;;;;
44734;BME280;30462;52.446;-1.930;2023-11-21T01:52:17;100386.0313;;;;
44734;BME280;30462;52.446;-1.930;2023-11-21T01:53:18;100391.5664;;;;
44734;BME280;30462;52.446;-1.930;2023-11-21T01:54:18;100390.2969;;;;
44734;BME280;30462;52.446;-1.930;2023-11-21T01:55:17;100396.3633;;;;
44734;BME280;30462;52.446;-1.930;2023-11-21T01:56:18;100398.2539;;;;
44734;BME280;30462;52.446;-1.930;2023-11-21T01:57:19;100398.2344;;;;
44734;BME280;30462;52.446;-1.930;2023-11-21T01:58:18;100399.2539;;;;
44734;BME280;30462;52.446;-1.930;2023-11-21T01:59:18;100400.3984;;;;
44734;BME280;30462;52.446;-1.930;2023-11-21T02:00:18;100404.3984;;;;
44734;BME280;30462;52.446;-1.930;2023-11-21T02:01:18;100404.3984;;;;
44734;BME280;30462;52.446;-1.930;2023-11-21T02:02:18;100404.6953;;;;
44734;BME280;30462;52.446;-1.930;2023-11-21T02:03:17;100409.4141;;;;
44734;BME280;30462;52.446;-1.930;2023-11-21T02:04:18;100410.1328;;;;
44734;BME280;30462;52.446;-1.930;2023-11-21T02:05:18;100412.9219;;;;
44734;BME280;30462;52.446;-1.930;2023-11-21T02:06:18;100416.0859;;;;
44734;BME280;30462;52.446;-1.930;2023-11-21T02:07:18;100412.7031;;;;
44734;BME280;30462;52.446;-1.930;2023-11-21T02:08:18;100416.5039;;;;
44734;BME280;30462;52.446;-1.930;2023-11-21T02:10:18;100418.5898;;;;
44734;BME280;30462;52.446;-1.930;2023-11-21T02:11:18;100418.9883;;;;
44734;BME280;30462;52.446;-1.930;2023-11-21T02:12:18;100422.2578;;;;
44734;BME280;30462;52.446;-1.930;2023-11-21T02:13:18;100424.6875;;;;
44734;BME280;30462;52.446;-1.930;2023-11-21T02:14:18;100424.3672;;;;
44734;BME280;30462;52.446;-1.930;2023-11-21T02:15:18;100422.2617;;;;
44734;BME280;30462;52.446;-1.930;2023-11-21T02:16:18;100429.5313;;;;
44734;BME280;30462;52.446;-1.930;2023-11-21T02:17:18;100427.5625;;;;
44734;BME280;30462;52.446;-1.930;2023-11-21T02:18:18;100430.0234;;;;
44734;BME280;30462;52.446;-1.930;2023-11-21T02:19:18;100433.0898;;;;
44734;BME280;30462;52.446;-1.930;2023-11-21T02:20:18;100429.625;;;;
44734;BME280;30462;52.446;-1.930;2023-11-21T02:21:18;100431.0078;;;;
44734;BME280;30462;52.446;-1.930;2023-11-21T02:22:17;100434.3477;;;;
44734;BME280;30462;52.446;-1.930;2023-11-21T02:23:18;100430.125;;;;
44734;BME280;30462;52.446;-1.930;2023-11-21T02:24:18;100433.1328;;;;
44734;BME280;30462;52.446;-1.930;2023-11-21T02:25:17;100432.707;;;;
44734;BME280;30462;52.446;-1.930;2023-11-21T02:26:18;100435.3203;;;;
44734;BME280;30462;52.446;-1.930;2023-11-21T02:27:18;100434.5625;;;;
44734;BME280;30462;52.446;-1.930;2023-11-21T02:28:18;100434.7188;;;;
44734;BME280;30462;52.446;-1.930;2023-11-21T02:29:18;100439.0273;;;;
44734;BME280;30462;52.446;-1.930;2023-11-21T02:30:18;100439.1602;;;;
44734;BME280;30462;52.446;-1.930;2023-11-21T02:31:17;100439.1289;;;;
44734;BME280;30462;52.446;-1.930;2023-11-21T02:32:18;100444.8477;;;;
44734;BME280;30462;52.446;-1.930;2023-11-21T02:33:18;100444.6641;;;;
44734;BME280;30462;52.446;-1.930;2023-11-21T02:34:18;100436.6875;;;;
44734;BME280;30462;52.446;-1.930;2023-11-21T02:35:17;100439.7227;;;;
44734;BME280;30462;52.446;-1.930;2023-11-21T02:36:18;100438.3828;;;;
44734;BME280;30462;52.446;-1.930;2023-11-21T02:37:18;100440.6875;;;;
44734;BME280;30462;52.446;-1.930;2023-11-21T02:38:18;100434.3867;;;;
44734;BME280;30462;52.446;-1.930;2023-11-21T02:39:18;100432.5;;;;
44734;BME280;30462;52.446;-1.930;2023-11-21T02:40:17;100437.0977;;;;
44734;BME280;30462;52.446;-1.930;2023-11-21T02:41:18;100430.6445;;;;
44734;BME280;30462;52.446;-1.930;2023-11-21T02:42:17;100438.8047;;;;
44734;BME280;30462;52.446;-1.930;2023-11-21T02:43:18;100440.4922;;;;
44734;BME280;30462;52.446;-1.930;2023-11-21T02:44:18;100444.7109;;;;
44734;BME280;30462;52.446;-1.930;2023-11-21T02:45:18;100452.2188;;;;
44734;BME280;30462;52.446;-1.930;2023-11-21T02:46:18;100449.6992;;;;
44734;BME280;30462;52.446;-1.930;2023-11-21T02:47:18;100450.8672;;;;
44734;BME280;30462;52.446;-1.930;2023-11-21T02:48:18;100455.2305;;;;
44734;BME280;30462;52.446;-1.930;2023-11-21T02:49:18;100455.3359;;;;
44734;BME280;30462;52.446;-1.930;2023-11-21T02:50:17;100453.0586;;;;
44734;BME280;30462;52.446;-1.930;2023-11-21T02:51:17;100455.5742;;;;
44734;BME280;30462;52.446;-1.930;2023-11-21T02:52:18;100453.25;;;;
44734;BME280;30462;52.446;-1.930;2023-11-21T02:53:18;100455.2852;;;;
44734;BME280;30462;52.446;-1.930;2023-11-21T02:54:18;100458.5547;;;;
44734;BME280;30462;52.446;-1.930;2023-11-21T02:55:18;100457.7266;;;;
44734;BME280;30462;52.446;-1.930;2023-11-21T02:56:18;100457.6602;;;;
44734;BME280;30462;52.446;-1.930;2023-11-21T02:57:18;100459.3711;;;;
44734;BME280;30462;52.446;-1.930;2023-11-21T02:58:18;100466.2344;;;;
44734;BME280;30462;52.446;-1.930;2023-11-21T02:59:17;100470.0352;;;;
44734;BME280;30462;52.446;-1.930;2023-11-21T03:00:18;100470.0469;;;;
44734;BME280;30462;52.446;-1.930;2023-11-21T03:01:18;100475.1406;;;;
44734;BME280;30462;52.446;-1.930;2023-11-21T03:02:18;100481.4102;;;;
44734;BME280;30462;52.446;-1.930;2023-11-21T03:03:18;100480.9844;;;;
44734;BME280;30462;52.446;-1.930;2023-11-21T03:04:18;100484.8984;;;;
44734;BME280;30462;52.446;-1.930;2023-11-21T03:05:18;100485.7148;;;;
44734;BME280;30462;52.446;-1.930;2023-11-21T03:06:18;100492.8789;;;;
44734;BME280;30462;52.446;-1.930;2023-11-21T03:07:17;100495.8633;;;;
44734;BME280;30462;52.446;-1.930;2023-11-21T03:08:18;100498.6602;;;;
44734;BME280;30462;52.446;-1.930;2023-11-21T03:09:18;100500.7539;;;;
44734;BME280;30462;52.446;-1.930;2023-11-21T03:10:18;100505.3359;;;;
44734;BME280;30462;52.446;-1.930;2023-11-21T03:11:17;100505.1914;;;;
44734;BME280;30462;52.446;-1.930;2023-11-21T03:12:18;100499.6484;;;;
44734;BME280;30462;52.446;-1.930;2023-11-21T03:13:18;100504.457;;;;
44734;BME280;30462;52.446;-1.930;2023-11-21T03:14:18;100508.043;;;;
44734;BME280;30462;52.446;-1.930;2023-11-21T03:15:18;100507.0586;;;;
44734;BME280;30462;52.446;-1.930;2023-11-21T03:16:18;100502.0781;;;;
44734;BME280;30462;52.446;-1.930;2023-11-21T03:17:17;100502.8828;;;;
44734;BME280;30462;52.446;-1.930;2023-11-21T03:18:17;100500.6602;;;;
44734;BME280;30462;52.446;-1.930;2023-11-21T03:19:18;100499.3086;;;;
44734;BME280;30462;52.446;-1.930;2023-11-21T03:20:18;100501.7461;;;;
44734;BME280;30462;52.446;-1.930;2023-11-21T03:21:18;100497.7227;;;;
44734;BME280;30462;52.446;-1.930;2023-11-21T03:22:18;100504.2891;;;;
44734;BME280;30462;52.446;-1.930;2023-11-21T03:23:18;100503.707;;;;
44734;BME280;30462;52.446;-1.930;2023-11-21T03:24:18;100507.8164;;;;
44734;BME280;30462;52.446;-1.930;2023-11-21T03:25:18;100508.3594;;;;
44734;BME280;30462;52.446;-1.930;2023-11-21T03:26:17;100513.6953;;;;
44734;BME280;30462;52.446;-1.930;2023-11-21T03:27:18;100512.5156;;;;
44734;BME280;30462;52.446;-1.930;2023-11-21T03:28:18;100513.043;;;;
44734;BME280;30462;52.446;-1.930;2023-11-21T03:29:18;100516.6445;;;;
44734;BME280;30462;52.446;-1.930;2023-11-21T03:30:18;100521.625;;;;
44734;BME280;30462;52.446;-1.930;2023-11-21T03:31:18;100525.5938;;;;
44734;BME280;30462;52.446;-1.930;2023-11-21T03:32:17;100534.0742;;;;
44734;BME280;30462;52.446;-1.930;2023-11-21T03:33:17;100534.25;;;;
44734;BME280;30462;52.446;-1.930;2023-11-21T03:34:23;100528.875;;;;
44734;BME280;30462;52.446;-1.930;2023-11-21T03:35:18;100531.918;;;;
44734;BME280;30462;52.446;-1.930;2023-11-21T03:36:17;100530.668;;;;
44734;BME280;30462;52.446;-1.930;2023-11-21T03:37:18;100533.2031;;;;
44734;BME280;30462;52.446;-1.930;2023-11-21T03:38:18;100535.2344;;;;
44734;BME280;30462;52.446;-1.930;2023-11-21T03:39:19;100529.2344;;;;
44734;BME280;30462;52.446;-1.930;2023-11-21T03:40:18;100524.9922;;;;
44734;BME280;30462;52.446;-1.930;2023-11-21T03:41:18;100532.3164;;;;
44734;BME280;30462;52.446;-1.930;2023-11-21T03:42:17;100528.2148;;;;
44734;BME280;30462;52.446;-1.930;2023-11-21T03:43:18;100536.4922;;;;
44734;BME280;30462;52.446;-1.930;2023-11-21T03:44:18;100535.9219;;;;
44734;BME280;30462;52.446;-1.930;2023-11-21T03:45:18;100537.0117;;;;
44734;BME280;30462;52.446;-1.930;2023-11-21T03:46:18;100539.7656;;;;
44734;BME280;30462;52.446;-1.930;2023-11-21T03:47:18;100540.418;;;;
44734;BME280;30462;52.446;-1.930;2023-11-21T03:48:18;100534.0586;;;;
44734;BME280;30462;52.446;-1.930;2023-11-21T03:49:18;100538.9727;;;;
44734;BME280;30462;52.446;-1.930;2023-11-21T03:50:18;100537.1758;;;;
44734;BME280;30462;52.446;-1.930;2023-11-21T03:51:17;100541.6172;;;;
44734;BME280;30462;52.446;-1.930;2023-11-21T03:52:18;100539.3047;;;;
44734;BME280;30462;52.446;-1.930;2023-11-21T03:53:18;100545.1016;;;;
44734;BME280;30462;52.446;-1.930;2023-11-21T03:54:18;100548.082;;;;
44734;BME280;30462;52.446;-1.930;2023-11-21T03:55:17;100544.293;;;;
44734;BME280;30462;52.446;-1.930;2023-11-21T03:56:18;100550.8164;;;;
44734;BME280;30462;52.446;-1.930;2023-11-21T03:57:18;100551.8867;;;;
44734;BME280;30462;52.446;-1.930;2023-11-21T03:58:18;100549.3047;;;;
44734;BME280;30462;52.446;-1.930;2023-11-21T03:59:17;100556.9766;;;;
44734;BME280;30462;52.446;-1.930;2023-11-21T04:00:18;100553.2773;;;;
44734;BME280;30462;52.446;-1.930;2023-11-21T04:01:19;100560.0742;;;;
44734;BME280;30462;52.446;-1.930;2023-11-21T04:02:18;100558.3164;;;;
44734;BME280;30462;52.446;-1.930;2023-11-21T04:03:18;100561.25;;;;
44734;BME280;30462;52.446;-1.930;2023-11-21T04:04:17;100568.8047;;;;
44734;BME280;30462;52.446;-1.930;2023-11-21T04:05:19;100569.1484;;;;
44734;BME280;30462;52.446;-1.930;2023-11-21T04:06:17;100569.7773;;;;
44734;BME280;30462;52.446;-1.930;2023-11-21T04:07:17;100569.5273;;;;
44734;BME280;30462;52.446;-1.930;2023-11-21T04:08:18;100572.5234;;;;
44734;BME280;30462;52.446;-1.930;2023-11-21T04:09:18;100570.5938;;;;
44734;BME280;30462;52.446;-1.930;2023-11-21T04:10:18;100575.7734;;;;
44734;BME280;30462;52.446;-1.930;2023-11-21T04:11:18;100572.1094;;;;
44734;BME280;30462;52.446;-1.930;2023-11-21T04:12:17;100576.6836;;;;
44734;BME280;30462;52.446;-1.930;2023-11-21T04:13:17;100582.2031;;;;
44734;BME280;30462;52.446;-1.930;2023-11-21T04:14:17;100581.9492;;;;
44734;BME280;30462;52.446;-1.930;2023-11-21T04:15:18;100576.9688;;;;
44734;BME280;30462;52.446;-1.930;2023-11-21T04:16:18;100582.8672;;;;
44734;BME280;30462;52.446;-1.930;2023-11-21T04:17:18;100586.7266;;;;
44734;BME280;30462;52.446;-1.930;2023-11-21T04:18:18;100584.8984;;;;
44734;BME280;30462;52.446;-1.930;2023-11-21T04:19:18;100582.1602;;;;
44734;BME280;30462;52.446;-1.930;2023-11-21T04:20:17;100579.0625;;;;
44734;BME280;30462;52.446;-1.930;2023-11-21T04:21:18;100580.4375;;;;
44734;BME280;30462;52.446;-1.930;2023-11-21T04:22:18;100583.2969;;;;
44734;BME280;30462;52.446;-1.930;2023-11-21T04:23:18;100583.8477;;;;
44734;BME280;30462;52.446;-1.930;2023-11-21T04:24:17;100586.3047;;;;
44734;BME280;30462;52.446;-1.930;2023-11-21T04:25:18;100583.418;;;;
44734;BME280;30462;52.446;-1.930;2023-11-21T04:26:18;100585.2813;;;;
44734;BME280;30462;52.446;-1.930;2023-11-21T04:27:18;100589.0469;;;;
44734;BME280;30462;52.446;-1.930;2023-11-21T04:28:18;100584.125;;;;
44734;BME280;30462;52.446;-1.930;2023-11-21T04:29:18;100589.9297;;;;
44734;BME280;30462;52.446;-1.930;2023-11-21T04:30:17;100587.7305;;;;
44734;BME280;30462;52.446;-1.930;2023-11-21T04:31:17;100586.6992;;;;
44734;BME280;30462;52.446;-1.930;2023-11-21T04:32:19;100587.5234;;;;
44734;BME280;30462;52.446;-1.930;2023-11-21T04:33:17;100589.4375;;;;
44734;BME280;30462;52.446;-1.930;2023-11-21T04:34:17;100583.0117;;;;
44734;BME280;30462;52.446;-1.930;2023-11-21T04:35:18;100591.6875;;;;
44734;BME280;30462;52.446;-1.930;2023-11-21T04:36:18;100592.3555;;;;
44734;BME280;30462;52.446;-1.930;2023-11-21T04:37:18;100592.0234;;;;
44734;BME280;30462;52.446;-1.930;2023-11-21T04:38:18;100596.5;;;;
44734;BME280;30462;52.446;-1.930;2023-11-21T04:39:17;100596.457;;;;
44734;BME280;30462;52.446;-1.930;2023-11-21T04:40:18;100589.3438;;;;
44734;BME280;30462;52.446;-1.930;2023-11-21T04:41:18;100600.3203;;;;
44734;BME280;30462;52.446;-1.930;2023-11-21T04:42:17;100597.8203;;;;
44734;BME280;30462;52.446;-1.930;2023-11-21T04:43:18;100594.1016;;;;
44734;BME280;30462;52.446;-1.930;2023-11-21T04:44:18;100594.9961;;;;
44734;BME280;30462;52.446;-1.930;2023-11-21T04:45:17;100601.2422;;;;
44734;BME280;30462;52.446;-1.930;2023-11-21T04:46:18;100602.375;;;;
44734;BME280;30462;52.446;-1.930;2023-11-21T04:47:18;100606.5195;;;;
44734;BME280;30462;52.446;-1.930;2023-11-21T04:48:18;100609.1523;;;;
44734;BME280;30462;52.446;-1.930;2023-11-21T04:49:18;100615.9297;;;;
44734;BME280;30462;52.446;-1.930;2023-11-21T04:50:18;100615.1289;;;;
44734;BME280;30462;52.446;-1.930;2023-11-21T04:51:18;100613.0586;;;;
44734;BME280;30462;52.446;-1.930;2023-11-21T04:52:18;100610.2344;;;;
44734;BME280;30462;52.446;-1.930;2023-11-21T04:53:18;100620.1641;;;;
44734;BME280;30462;52.446;-1.930;2023-11-21T04:54:18;100621.2891;;;;
44734;BME280;30462;52.446;-1.930;2023-11-21T04:55:17;100621.7461;;;;
44734;BME280;30462;52.446;-1.930;2023-11-21T04:56:18;100623.7383;;;;
44734;BME280;30462;52.446;-1.930;2023-11-21T04:57:18;100624.4258;;;;
44734;BME280;30462;52.446;-1.930;2023-11-21T04:58:17;100617.9883;;;;
44734;BME280;30462;52.446;-1.930;2023-11-21T04:59:18;100625.8281;;;;
44734;BME280;30462;52.446;-1.930;2023-11-21T05:00:18;100629.3633;;;;
44734;BME280;30462;52.446;-1.930;2023-11-21T05:01:18;100625.7188;;;;
44734;BME280;30462;52.446;-1.930;2023-11-21T05:02:18;100626.8438;;;;
44734;BME280;30462;52.446;-1.930;2023-11-21T05:03:18;100626.9727;;;;
44734;BME280;30462;52.446;-1.930;2023-11-21T05:04:18;100631.1797;;;;
44734;BME280;30462;52.446;-1.930;2023-11-21T05:05:18;100632.8828;;;;
44734;BME280;30462;52.446;-1.930;2023-11-21T05:06:18;100636.043;;;;
44734;BME280;30462;52.446;-1.930;2023-11-21T05:07:17;100637.2266;;;;
44734;BME280;30462;52.446;-1.930;2023-11-21T05:08:18;100639.8281;;;;
44734;BME280;30462;52.446;-1.930;2023-11-21T05:09:18;100642.0391;;;;
44734;BME280;30462;52.446;-1.930;2023-11-21T05:10:18;100643.7617;;;;
44734;BME280;30462;52.446;-1.930;2023-11-21T05:12:18;100650.8164;;;;
44734;BME280;30462;52.446;-1.930;2023-11-21T05:13:18;100650.1328;;;;
44734;BME280;30462;52.446;-1.930;2023-11-21T05:14:18;100649.0664;;;;
44734;BME280;30462;52.446;-1.930;2023-11-21T05:15:18;100644.2891;;;;
44734;BME280;30462;52.446;-1.930;2023-11-21T05:16:18;100644.0781;;;;
44734;BME280;30462;52.446;-1.930;2023-11-21T05:17:18;100649.4063;;;;
44734;BME280;30462;52.446;-1.930;2023-11-21T05:18:18;100644.1367;;;;
44734;BME280;30462;52.446;-1.930;2023-11-21T05:19:18;100647.6016;;;;
44734;BME280;30462;52.446;-1.930;2023-11-21T05:20:18;100648.9141;;;;
44734;BME280;30462;52.446;-1.930;2023-11-21T05:21:18;100653.625;;;;
44734;BME280;30462;52.446;-1.930;2023-11-21T05:22:18;100656.0625;;;;
44734;BME280;30462;52.446;-1.930;2023-11-21T05:23:18;100654.1641;;;;
44734;BME280;30462;52.446;-1.930;2023-11-21T05:24:17;100659.5078;;;;
44734;BME280;30462;52.446;-1.930;2023-11-21T05:25:18;100657.3828;;;;
44734;BME280;30462;52.446;-1.930;2023-11-21T05:26:18;100657.2852;;;;
44734;BME280;30462;52.446;-1.930;2023-11-21T05:27:18;100659.1484;;;;
44734;BME280;30462;52.446;-1.930;2023-11-21T05:28:17;100666.7266;;;;
44734;BME280;30462;52.446;-1.930;2023-11-21T05:29:18;100669.5469;;;;
44734;BME280;30462;52.446;-1.930;2023-11-21T05:30:18;100668.1875;;;;
44734;BME280;30462;52.446;-1.930;2023-11-21T05:31:18;100669.1211;;;;
44734;BME280;30462;52.446;-1.930;2023-11-21T05:32:17;100669.7813;;;;
44734;BME280;30462;52.446;-1.930;2023-11-21T05:33:18;100668.5;;;;
44734;BME280;30462;52.446;-1.930;2023-11-21T05:34:18;100676.8359;;;;
44734;BME280;30462;52.446;-1.930;2023-11-21T05:35:18;100672.2539;;;;
44734;BME280;30462;52.446;-1.930;2023-11-21T05:36:18;100668.0469;;;;
44734;BME280;30462;52.446;-1.930;2023-11-21T05:37:17;100668.4883;;;;
44734;BME280;30462;52.446;-1.930;2023-11-21T05:38:18;100666.3281;;;;
44734;BME280;30462;52.446;-1.930;2023-11-21T05:39:18;100663.0703;;;;
44734;BME280;30462;52.446;-1.930;2023-11-21T05:40:18;100673.957;;;;
44734;BME280;30462;52.446;-1.930;2023-11-21T05:41:18;100676.7227;;;;
44734;BME280;30462;52.446;-1.930;2023-11-21T05:42:17;100671.2891;;;;
44734;BME280;30462;52.446;-1.930;2023-11-21T05:43:18;100681.9258;;;;
44734;BME280;30462;52.446;-1.930;2023-11-21T05:44:18;100677.0313;;;;
44734;BME280;30462;52.446;-1.930;2023-11-21T05:45:18;100681.6172;;;;
44734;BME280;30462;52.446;-1.930;2023-11-21T05:46:18;100676.3281;;;;
44734;BME280;30462;52.446;-1.930;2023-11-21T05:47:17;100677.0469;;;;
44734;BME280;30462;52.446;-1.930;2023-11-21T05:48:18;100674.1016;;;;